Time;durP1;ratioP1;P1;durP2;ratioP2;P2;SDS_P1;SDS_P2;PMS_P1;PMS_P2;Temp;Humidity;BMP_temperature;BMP_pressure;BME280_temperature;BME280_humidity;BME280_pressure;Samples;Min_cycle;Max_cycle;Signal;HPM_P1;HPM_P2
2022/09/06 00:00:54;;;;;;;;;;;;;;;14.48;87.83;95873.63;5093174;28;1017;-50
2022/09/06 00:03:20;;;;;;;;;;;;;;;14.49;87.79;95877.97;5093056;28;1081;-50
2022/09/06 00:05:47;;;;;;;;;;;;;;;14.47;87.63;95882.69;5093471;28;1091;-50
2022/09/06 00:08:13;;;;;;;;;;;;;;;14.32;86.83;95878.97;5093022;28;1898;-50
2022/09/06 00:10:41;;;;;;;;;;;;;;;14.12;87.46;95876.59;5093359;28;968;-49
2022/09/06 00:13:07;;;;;;;;;;;;;;;14.05;88.64;95876.41;5093321;28;962;-50
2022/09/06 00:15:34;;;;;;;;;;;;;;;13.96;88.83;95879.25;5093340;28;1029;-50
2022/09/06 00:18:01;;;;;;;;;;;;;;;13.83;89.34;95875.19;5093264;28;958;-50
2022/09/06 00:20:28;;;;;;;;;;;;;;;13.86;89.63;95882.91;5093122;28;1063;-50
2022/09/06 00:22:58;;;;;;;;;;;;;;;14.01;89.51;95884.97;5093051;28;1188;-50
2022/09/06 00:25:24;;;;;;;;;;;;;;;14.17;88.38;95882.34;5093372;28;985;-50
2022/09/06 00:27:54;;;;;;;;;;;;;;;14.09;88.50;95878.78;5093134;28;1902;-50
2022/09/06 00:30:21;;;;;;;;;;;;;;;14.15;88.37;95873.59;5092965;28;1317;-50
2022/09/06 00:32:47;;;;;;;;;;;;;;;14.16;87.92;95867.19;5113417;28;1060;-50
2022/09/06 00:35:13;;;;;;;;;;;;;;;14.20;87.83;95871.22;5113283;28;972;-50
2022/09/06 00:37:39;;;;;;;;;;;;;;;13.91;87.75;95870.84;5113467;28;1025;-50
2022/09/06 00:40:06;;;;;;;;;;;;;;;13.84;88.80;95870.66;5113074;28;1229;-49
2022/09/06 00:42:32;;;;;;;;;;;;;;;13.97;88.41;95872.88;5113357;28;1008;-50
2022/09/06 00:44:58;;;;;;;;;;;;;;;13.96;88.26;95868.50;5102749;28;1209;-50
2022/09/06 00:47:26;;;;;;;;;;;;;;;13.86;87.77;95872.16;5092977;28;1901;-50
2022/09/06 00:49:54;;;;;;;;;;;;;;;13.61;89.13;95873.09;5092577;28;973;-50
2022/09/06 00:52:21;;;;;;;;;;;;;;;13.58;89.76;95874.28;5092909;28;1038;-50
2022/09/06 00:54:48;;;;;;;;;;;;;;;13.66;89.31;95870.78;5093015;28;992;-50
2022/09/06 00:57:15;;;;;;;;;;;;;;;13.85;88.42;95869.66;5093041;28;957;-50
2022/09/06 00:59:41;;;;;;;;;;;;;;;13.85;88.63;95864.28;5092734;28;1021;-50
2022/09/06 01:02:08;;;;;;;;;;;;;;;13.88;88.27;95873.84;5092534;28;1031;-50
2022/09/06 01:04:35;;;;;;;;;;;;;;;13.93;88.52;95871.53;5092734;28;1025;-49
2022/09/06 01:07:01;;;;;;;;;;;;;;;13.88;87.67;95868.47;5093095;28;1910;-50
2022/09/06 01:09:45;;;;;;;;;;;;;;;13.66;88.75;95873.47;5095138;28;958;-50
2022/09/06 01:12:36;;;;;;;;;;;;;;;13.42;89.85;95869.66;5096273;28;922;-50
2022/09/06 01:15:05;;;;;;;;;;;;;;;13.39;89.60;95870.00;5096231;28;1080;-50
2022/09/06 01:17:37;;;;;;;;;;;;;;;13.43;89.86;95870.50;5096513;28;1130;-50
2022/09/06 01:20:09;;;;;;;;;;;;;;;13.50;89.85;95876.91;5096375;28;1041;-50
2022/09/06 01:22:50;;;;;;;;;;;;;;;13.59;89.09;95872.44;5096135;28;1092;-50
2022/09/06 01:25:19;;;;;;;;;;;;;;;13.69;89.38;95874.97;5096190;28;1011;-50
2022/09/06 01:27:55;;;;;;;;;;;;;;;13.69;88.78;95873.13;5096240;28;2000;-50
2022/09/06 01:30:21;;;;;;;;;;;;;;;13.48;89.27;95871.69;5096222;28;937;-50
2022/09/06 01:32:54;;;;;;;;;;;;;;;13.33;89.88;95865.25;5095927;28;1826;-50
2022/09/06 01:35:27;;;;;;;;;;;;;;;13.34;90.01;95872.31;5096024;28;961;-50
2022/09/06 01:37:54;;;;;;;;;;;;;;;13.38;90.34;95867.47;5095955;28;1092;-50
2022/09/06 01:40:20;;;;;;;;;;;;;;;13.47;89.49;95870.03;5095748;28;1009;-50
2022/09/06 01:42:47;;;;;;;;;;;;;;;13.73;88.29;95877.16;5095757;28;1180;-50
2022/09/06 01:45:15;;;;;;;;;;;;;;;13.63;88.25;95873.78;5095788;28;1213;-50
2022/09/06 01:48:01;;;;;;;;;;;;;;;13.56;88.13;95868.19;5095962;28;1905;-50
2022/09/06 01:50:50;;;;;;;;;;;;;;;13.40;88.37;95865.47;5094214;28;2231;-50
2022/09/06 01:53:26;;;;;;;;;;;;;;;13.16;89.29;95869.66;5086549;28;1217;-50
2022/09/06 01:56:01;;;;;;;;;;;;;;;13.30;90.18;95873.66;5095744;28;958;-50
2022/09/06 01:58:38;;;;;;;;;;;;;;;13.29;89.78;95863.88;5095681;28;937;-50
2022/09/06 02:01:10;;;;;;;;;;;;;;;13.38;90.42;95860.25;5095028;28;1072;-50
2022/09/06 02:03:36;;;;;;;;;;;;;;;13.38;89.84;95870.16;5095828;28;1014;-50
2022/09/06 02:06:04;;;;;;;;;;;;;;;13.15;89.46;95872.53;5095526;28;1196;-50
2022/09/06 02:08:33;;;;;;;;;;;;;;;13.25;89.37;95863.34;5095596;28;1910;-50
2022/09/06 02:11:00;;;;;;;;;;;;;;;13.14;89.12;95866.28;5095255;28;1083;-50
2022/09/06 02:13:30;;;;;;;;;;;;;;;13.02;89.92;95865.75;5095192;28;1229;-50
2022/09/06 02:16:00;;;;;;;;;;;;;;;13.08;89.71;95872.31;5094658;28;1067;-50
2022/09/06 02:18:32;;;;;;;;;;;;;;;12.93;90.80;95868.53;5095320;28;1040;-50
2022/09/06 02:21:00;;;;;;;;;;;;;;;12.88;90.15;95869.00;5094292;28;1025;-49
2022/09/06 02:23:29;;;;;;;;;;;;;;;13.02;90.74;95863.06;5095224;28;1114;-50
2022/09/06 02:26:03;;;;;;;;;;;;;;;13.15;89.32;95875.22;5094758;28;1077;-50
2022/09/06 02:28:30;;;;;;;;;;;;;;;13.03;89.36;95866.56;5095082;28;1902;-50
2022/09/06 02:31:01;;;;;;;;;;;;;;;13.11;89.81;95873.81;5095107;28;992;-50
2022/09/06 02:33:29;;;;;;;;;;;;;;;13.02;89.97;95871.09;5095049;28;919;-50
2022/09/06 02:35:55;;;;;;;;;;;;;;;12.92;89.55;95873.06;5094509;28;1073;-50
2022/09/06 02:38:22;;;;;;;;;;;;;;;12.81;90.28;95871.47;5094709;28;1231;-50
2022/09/06 02:40:50;;;;;;;;;;;;;;;12.76;90.38;95878.31;5094656;28;1028;-49
2022/09/06 02:43:17;;;;;;;;;;;;;;;12.73;90.99;95883.97;5094728;28;1099;-50
2022/09/06 02:45:43;;;;;;;;;;;;;;;12.75;90.89;95869.44;5094274;28;1138;-50
2022/09/06 02:48:09;;;;;;;;;;;;;;;12.85;90.14;95874.69;5094686;28;1983;-50
2022/09/06 02:50:35;;;;;;;;;;;;;;;12.92;89.99;95874.88;5094599;28;968;-50
2022/09/06 02:53:03;;;;;;;;;;;;;;;12.94;89.89;95872.88;5094666;28;1214;-50
2022/09/06 02:55:29;;;;;;;;;;;;;;;13.03;89.23;95871.94;5094201;28;1024;-50
2022/09/06 02:57:55;;;;;;;;;;;;;;;13.03;89.13;95869.25;5094862;28;1029;-50
2022/09/06 03:00:21;;;;;;;;;;;;;;;12.90;89.30;95880.44;5094500;28;1041;-50
2022/09/06 03:02:47;;;;;;;;;;;;;;;12.74;89.07;95875.78;5094591;28;1046;-50
2022/09/06 03:05:13;;;;;;;;;;;;;;;12.62;89.50;95877.88;5093901;28;1103;-50
2022/09/06 03:07:39;;;;;;;;;;;;;;;12.78;90.64;95879.00;5094326;28;1997;-50
2022/09/06 03:10:05;;;;;;;;;;;;;;;12.86;89.89;95885.28;5094181;28;970;-50
2022/09/06 03:12:31;;;;;;;;;;;;;;;12.80;90.02;95880.50;5094383;28;1049;-50
2022/09/06 03:14:57;;;;;;;;;;;;;;;12.81;89.14;95892.13;5094433;28;977;-50
2022/09/06 03:17:23;;;;;;;;;;;;;;;12.67;89.73;95882.75;5093814;28;960;-50
2022/09/06 03:19:49;;;;;;;;;;;;;;;12.70;89.10;95880.63;5094168;28;1092;-50
2022/09/06 03:22:15;;;;;;;;;;;;;;;12.74;89.09;95875.78;5093961;28;1053;-50
2022/09/06 03:24:41;;;;;;;;;;;;;;;12.75;89.33;95888.22;5094041;28;984;-50
2022/09/06 03:27:07;;;;;;;;;;;;;;;12.59;90.25;95890.75;5093693;28;1991;-49
2022/09/06 03:29:33;;;;;;;;;;;;;;;12.63;90.29;95895.66;5094027;28;1072;-50
2022/09/06 03:32:00;;;;;;;;;;;;;;;12.49;89.50;95893.53;5093737;28;978;-49
2022/09/06 03:34:26;;;;;;;;;;;;;;;12.38;90.36;95893.78;5093820;28;1025;-50
2022/09/06 03:36:52;;;;;;;;;;;;;;;12.59;89.90;95899.63;5093453;28;970;-49
2022/09/06 03:39:18;;;;;;;;;;;;;;;12.53;90.14;95894.91;5093534;28;1092;-50
2022/09/06 03:41:44;;;;;;;;;;;;;;;12.43;90.15;95895.00;5093852;28;989;-50
2022/09/06 03:44:10;;;;;;;;;;;;;;;12.50;90.62;95890.69;5093628;28;1166;-50
2022/09/06 03:46:36;;;;;;;;;;;;;;;12.55;90.18;95895.59;5093412;28;1992;-50
2022/09/06 03:49:02;;;;;;;;;;;;;;;12.52;90.39;95897.72;5093688;28;1033;-50
2022/09/06 03:51:28;;;;;;;;;;;;;;;12.49;89.08;95902.41;5093438;28;1061;-50
2022/09/06 03:53:54;;;;;;;;;;;;;;;12.45;89.77;95897.53;5093600;28;976;-50
2022/09/06 03:56:20;;;;;;;;;;;;;;;12.53;90.54;95904.81;5093023;28;1118;-49
2022/09/06 03:58:46;;;;;;;;;;;;;;;12.65;90.50;95904.41;5093614;28;905;-50
2022/09/06 04:01:12;;;;;;;;;;;;;;;12.63;89.35;95906.38;5093286;28;942;-50
2022/09/06 04:03:39;;;;;;;;;;;;;;;12.70;90.33;95895.88;5093651;28;1020;-49
2022/09/06 04:06:05;;;;;;;;;;;;;;;12.88;89.43;95898.50;5093014;28;1217;-50
2022/09/06 04:08:32;;;;;;;;;;;;;;;12.98;88.69;95903.81;5093332;28;1918;-50
2022/09/06 04:10:58;;;;;;;;;;;;;;;12.76;89.06;95899.78;5093532;28;1045;-50
2022/09/06 04:13:27;;;;;;;;;;;;;;;12.70;89.89;95902.06;5093500;28;1043;-50
2022/09/06 04:15:53;;;;;;;;;;;;;;;12.68;90.85;95905.94;5093194;28;976;-49
2022/09/06 04:18:19;;;;;;;;;;;;;;;12.81;90.39;95901.00;5093045;28;1064;-50
2022/09/06 04:20:53;;;;;;;;;;;;;;;12.73;89.86;95900.94;5093399;28;1009;-50
2022/09/06 04:23:19;;;;;;;;;;;;;;;12.66;90.88;95900.72;5093045;28;985;-50
2022/09/06 04:25:46;;;;;;;;;;;;;;;12.73;91.34;95900.06;5093201;28;1053;-50
2022/09/06 04:28:12;;;;;;;;;;;;;;;12.65;90.80;95904.41;5093140;28;1934;-50
2022/09/06 04:30:38;;;;;;;;;;;;;;;12.66;91.00;95900.72;5093237;28;1071;-50
2022/09/06 04:33:04;;;;;;;;;;;;;;;12.80;91.45;95904.66;5093057;28;1059;-50
2022/09/06 04:35:30;;;;;;;;;;;;;;;12.92;91.26;95915.16;5093244;28;1053;-50
2022/09/06 04:37:59;;;;;;;;;;;;;;;12.95;91.61;95907.63;5092363;28;1130;-51
2022/09/06 04:40:25;;;;;;;;;;;;;;;12.82;91.58;95909.88;5093307;28;1057;-50
2022/09/06 04:42:51;;;;;;;;;;;;;;;12.93;91.65;95900.75;5093181;28;1021;-50
2022/09/06 04:45:17;;;;;;;;;;;;;;;13.24;91.35;95899.28;5096869;28;1229;-50
2022/09/06 04:47:43;;;;;;;;;;;;;;;13.51;91.16;95899.25;5096578;28;1996;-50
2022/09/06 04:50:09;;;;;;;;;;;;;;;13.62;90.29;95909.69;5096882;28;1020;-49
2022/09/06 04:52:35;;;;;;;;;;;;;;;13.48;89.80;95898.56;5096667;28;1022;-49
2022/09/06 04:55:01;;;;;;;;;;;;;;;13.53;90.20;95908.84;5096965;28;1608;-50
2022/09/06 04:57:27;;;;;;;;;;;;;;;13.64;91.35;95905.88;5096698;28;1201;-50
2022/09/06 04:59:53;;;;;;;;;;;;;;;13.85;90.86;95902.75;5096995;28;982;-55
2022/09/06 05:02:19;;;;;;;;;;;;;;;14.02;90.68;95900.13;5096594;28;1036;-50
2022/09/06 05:04:45;;;;;;;;;;;;;;;14.14;90.68;95895.28;5096850;28;1043;-50
2022/09/06 05:07:11;;;;;;;;;;;;;;;14.27;90.54;95906.38;5095993;28;2031;-50
2022/09/06 05:09:37;;;;;;;;;;;;;;;14.44;88.83;95897.31;5096961;28;1051;-49
2022/09/06 05:12:03;;;;;;;;;;;;;;;14.66;88.38;95902.25;5096584;28;1029;-49
2022/09/06 05:14:29;;;;;;;;;;;;;;;14.80;87.52;95909.66;5096722;28;988;-49
2022/09/06 05:16:55;;;;;;;;;;;;;;;14.97;85.90;95899.72;5096025;28;1064;-50
2022/09/06 05:19:22;;;;;;;;;;;;;;;15.15;85.29;95900.34;5096521;28;1020;-49
2022/09/06 05:21:49;;;;;;;;;;;;;;;15.08;83.98;95903.88;5096251;28;1083;-49
2022/09/06 05:24:15;;;;;;;;;;;;;;;15.20;85.84;95899.84;5096361;28;1869;-49
2022/09/06 05:26:41;;;;;;;;;;;;;;;15.32;84.96;95900.31;5096091;28;2013;-49
2022/09/06 05:29:07;;;;;;;;;;;;;;;15.35;84.45;95900.81;5096147;28;1029;-50
2022/09/06 05:31:33;;;;;;;;;;;;;;;15.39;84.75;95906.72;5096382;28;957;-49
2022/09/06 05:34:00;;;;;;;;;;;;;;;15.50;83.71;95903.63;5096099;28;1190;-50
2022/09/06 05:36:26;;;;;;;;;;;;;;;15.60;83.58;95903.44;5095736;28;1033;-50
2022/09/06 05:38:53;;;;;;;;;;;;;;;15.64;84.03;95907.47;5095810;28;1197;-50
2022/09/06 05:41:19;;;;;;;;;;;;;;;15.65;84.24;95902.91;5096197;28;1070;-50
2022/09/06 05:43:45;;;;;;;;;;;;;;;15.61;84.21;95895.19;5095912;28;1162;-50
2022/09/06 05:46:12;;;;;;;;;;;;;;;15.55;84.89;95898.56;5095667;28;964;-50
2022/09/06 05:48:38;;;;;;;;;;;;;;;15.46;84.37;95893.38;5095725;28;2031;-50
2022/09/06 05:51:08;;;;;;;;;;;;;;;15.58;84.99;95902.78;5095723;28;1121;-50
2022/09/06 05:53:35;;;;;;;;;;;;;;;15.71;85.38;95894.97;5095672;28;1088;-50
2022/09/06 05:56:02;;;;;;;;;;;;;;;15.79;85.41;95903.03;5095574;28;1010;-50
2022/09/06 05:58:28;;;;;;;;;;;;;;;15.80;84.84;95891.25;5095711;28;1033;-51
2022/09/06 06:01:05;;;;;;;;;;;;;;;16.02;84.85;95890.66;5095587;28;1859;-50
2022/09/06 06:03:31;;;;;;;;;;;;;;;16.09;83.94;95897.84;5095105;28;977;-50
2022/09/06 06:05:57;;;;;;;;;;;;;;;16.15;84.58;95894.44;5095541;28;1127;-49
2022/09/06 06:08:23;;;;;;;;;;;;;;;16.24;83.53;95889.84;5095375;28;1993;-49
2022/09/06 06:10:49;;;;;;;;;;;;;;;16.54;82.54;95887.25;5095608;28;1036;-50
2022/09/06 06:13:15;;;;;;;;;;;;;;;16.64;81.33;95878.91;5095361;28;1009;-50
2022/09/06 06:15:41;;;;;;;;;;;;;;;16.63;81.76;95880.78;5095463;28;953;-49
2022/09/06 06:18:07;;;;;;;;;;;;;;;16.83;81.99;95881.16;5094795;28;1158;-49
2022/09/06 06:20:33;;;;;;;;;;;;;;;17.04;81.82;95868.81;5095285;28;1077;-50
2022/09/06 06:22:59;;;;;;;;;;;;;;;17.31;79.96;95883.56;5095313;28;1069;-49
2022/09/06 06:25:25;;;;;;;;;;;;;;;17.56;79.12;95878.72;5095105;28;1021;-50
2022/09/06 06:27:51;;;;;;;;;;;;;;;17.71;78.68;95873.31;5094828;28;1988;-49
2022/09/06 06:30:17;;;;;;;;;;;;;;;17.94;79.64;95881.34;5094954;28;1020;-50
2022/09/06 06:32:43;;;;;;;;;;;;;;;18.49;77.03;95871.75;5094975;28;1013;-50
2022/09/06 06:35:09;;;;;;;;;;;;;;;19.36;72.56;95872.50;5094993;28;1197;-49
2022/09/06 06:37:35;;;;;;;;;;;;;;;21.34;65.14;95875.22;5094972;28;1045;-49
2022/09/06 06:40:02;;;;;;;;;;;;;;;23.55;57.58;95875.78;5094658;28;1246;-50
2022/09/06 06:42:28;;;;;;;;;;;;;;;26.07;50.53;95882.53;5095047;28;1000;-52
2022/09/06 06:44:54;;;;;;;;;;;;;;;28.08;44.82;95882.28;5094594;28;1158;-51
2022/09/06 06:47:20;;;;;;;;;;;;;;;29.45;41.85;95889.59;5094218;28;1976;-51
2022/09/06 06:49:47;;;;;;;;;;;;;;;30.39;39.36;95891.91;5094830;28;1040;-50
2022/09/06 06:52:13;;;;;;;;;;;;;;;31.51;36.81;95894.16;5094557;28;930;-51
2022/09/06 06:54:40;;;;;;;;;;;;;;;31.81;35.00;95896.06;5094663;28;1039;-51
2022/09/06 06:57:08;;;;;;;;;;;;;;;32.19;34.87;95898.53;5094378;28;1025;-51
2022/09/06 06:59:34;;;;;;;;;;;;;;;32.56;34.69;95900.06;5094409;28;957;-51
2022/09/06 07:02:00;;;;;;;;;;;;;;;32.58;33.80;95900.66;5094430;28;1064;-50
2022/09/06 07:04:26;;;;;;;;;;;;;;;33.23;32.93;95904.19;5094507;28;1012;-51
2022/09/06 07:06:53;;;;;;;;;;;;;;;33.59;32.81;95908.63;5093935;28;2019;-51
2022/09/06 07:09:20;;;;;;;;;;;;;;;33.59;33.35;95901.16;5094117;28;1025;-51
2022/09/06 07:11:49;;;;;;;;;;;;;;;33.03;33.99;95902.34;5094303;28;1045;-51
2022/09/06 07:14:16;;;;;;;;;;;;;;;33.59;32.10;95908.63;5094010;28;1197;-51
2022/09/06 07:16:42;;;;;;;;;;;;;;;33.90;31.76;95911.16;5075917;28;1028;-51
2022/09/06 07:19:08;;;;;;;;;;;;;;;34.32;32.16;95913.28;5093979;28;1927;-51
2022/09/06 07:21:34;;;;;;;;;;;;;;;34.74;31.69;95908.94;5094333;28;1114;-51
2022/09/06 07:24:01;;;;;;;;;;;;;;;34.30;32.31;95912.75;5094117;28;1027;-51
2022/09/06 07:26:28;;;;;;;;;;;;;;;33.83;31.60;95904.03;5093271;28;1053;-51
2022/09/06 07:28:56;;;;;;;;;;;;;;;33.37;33.19;95907.16;5093512;28;1894;-51
2022/09/06 07:31:23;;;;;;;;;;;;;;;32.31;34.70;95890.75;5093551;28;1057;-51
2022/09/06 07:33:49;;;;;;;;;;;;;;;30.73;37.64;95882.13;5093311;28;1017;-51
2022/09/06 07:36:15;;;;;;;;;;;;;;;28.85;42.04;95874.97;5093941;28;1054;-50
2022/09/06 07:38:41;;;;;;;;;;;;;;;27.35;44.19;95876.75;5093880;28;1076;-50
2022/09/06 07:41:08;;;;;;;;;;;;;;;25.93;46.99;95870.97;5093522;28;1013;-50
2022/09/06 07:43:35;;;;;;;;;;;;;;;25.37;48.14;95886.91;5093675;28;1222;-50
2022/09/06 07:46:01;;;;;;;;;;;;;;;25.02;52.30;95878.63;5093430;28;1185;-50
2022/09/06 07:48:29;;;;;;;;;;;;;;;24.65;52.66;95887.78;5093863;28;1980;-50
2022/09/06 07:50:55;;;;;;;;;;;;;;;24.45;50.70;95888.00;5093518;28;1013;-50
2022/09/06 07:53:21;;;;;;;;;;;;;;;24.51;52.01;95887.13;5093408;28;1033;-49
2022/09/06 07:55:47;;;;;;;;;;;;;;;24.47;53.30;95882.31;5093423;28;1067;-49
2022/09/06 07:58:13;;;;;;;;;;;;;;;24.23;55.46;95884.94;5093244;28;1825;-48
2022/09/06 08:00:39;;;;;;;;;;;;;;;24.29;53.10;95885.94;5093231;28;1043;-49
2022/09/06 08:03:05;;;;;;;;;;;;;;;24.25;52.60;95882.81;5093117;28;1113;-48
2022/09/06 08:05:32;;;;;;;;;;;;;;;24.39;54.08;95885.38;5093359;28;969;-49
2022/09/06 08:07:58;;;;;;;;;;;;;;;24.72;53.86;95883.06;5093472;28;1909;-49
2022/09/06 08:10:24;;;;;;;;;;;;;;;24.83;51.16;95873.22;5093013;28;1254;-49
2022/09/06 08:12:54;;;;;;;;;;;;;;;24.70;53.25;95876.13;5093396;28;1031;-49
2022/09/06 08:15:20;;;;;;;;;;;;;;;24.54;54.17;95880.38;5075137;28;1030;-49
2022/09/06 08:17:49;;;;;;;;;;;;;;;24.77;52.08;95879.63;5075371;28;1041;-48
2022/09/06 08:20:16;;;;;;;;;;;;;;;24.78;50.90;95864.06;5097146;28;1012;-49
2022/09/06 08:22:42;;;;;;;;;;;;;;;24.74;51.69;95874.63;5097421;28;1033;-49
2022/09/06 08:25:09;;;;;;;;;;;;;;;24.98;53.58;95858.28;5096947;28;1180;-51
2022/09/06 08:27:35;;;;;;;;;;;;;;;24.49;54.09;95863.78;5097419;28;1904;-50
2022/09/06 08:30:02;;;;;;;;;;;;;;;23.99;54.80;95851.19;5062806;28;1405;-49
2022/09/06 08:32:31;;;;;;;;;;;;;;;24.01;56.10;95850.97;5079636;28;1520;-49
2022/09/06 08:34:58;;;;;;;;;;;;;;;23.59;57.14;95848.88;5096864;28;1216;-49
2022/09/06 08:37:24;;;;;;;;;;;;;;;23.15;57.17;95846.16;5097361;28;1075;-49
2022/09/06 08:39:51;;;;;;;;;;;;;;;23.07;61.22;95846.44;5075779;28;1573;-49
2022/09/06 08:42:17;;;;;;;;;;;;;;;23.31;60.20;95839.28;5096169;28;1684;-50
2022/09/06 08:44:47;;;;;;;;;;;;;;;23.41;55.97;95837.94;5096920;28;1215;-50
2022/09/06 08:47:14;;;;;;;;;;;;;;;23.38;58.17;95840.03;5097077;28;1901;-49
2022/09/06 08:49:42;;;;;;;;;;;;;;;23.54;58.45;95833.19;5097086;28;1092;-50
2022/09/06 08:52:26;;;;;;;;;;;;;;;23.51;58.45;95827.34;5097035;28;956;-49
2022/09/06 08:54:57;;;;;;;;;;;;;;;23.54;59.49;95827.72;5096667;28;1012;-50
2022/09/06 08:57:32;;;;;;;;;;;;;;;23.58;56.42;95818.03;5097057;28;1028;-50
2022/09/06 09:00:00;;;;;;;;;;;;;;;23.63;56.56;95816.50;5096857;28;1072;-50
2022/09/06 09:02:28;;;;;;;;;;;;;;;23.72;57.50;95810.50;5095766;28;1424;-50
2022/09/06 09:04:57;;;;;;;;;;;;;;;23.77;54.85;95801.63;5096516;28;1243;-50
2022/09/06 09:07:35;;;;;;;;;;;;;;;23.88;56.20;95800.06;5096466;28;1987;-50
2022/09/06 09:10:05;;;;;;;;;;;;;;;24.11;55.99;95802.94;5096714;28;1079;-50
2022/09/06 09:12:32;;;;;;;;;;;;;;;24.27;55.18;95801.44;5095843;28;957;-49
2022/09/06 09:15:04;;;;;;;;;;;;;;;24.26;54.67;95790.75;5096490;28;1226;-49
2022/09/06 09:17:31;;;;;;;;;;;;;;;24.24;57.20;95790.97;5096570;28;1040;-50
2022/09/06 09:19:57;;;;;;;;;;;;;;;24.22;55.80;95776.72;5096522;28;1091;-50
2022/09/06 09:22:23;;;;;;;;;;;;;;;24.26;55.12;95777.09;5096220;28;1025;-50
2022/09/06 09:24:51;;;;;;;;;;;;;;;24.27;55.46;95778.75;5096387;28;1307;-50
2022/09/06 09:27:19;;;;;;;;;;;;;;;24.33;55.81;95777.81;5096071;28;1913;-49
2022/09/06 09:29:54;;;;;;;;;;;;;;;24.48;56.92;95771.94;5096023;28;972;-50
2022/09/06 09:32:33;;;;;;;;;;;;;;;24.65;57.11;95767.50;5096611;28;950;-50
2022/09/06 09:35:18;;;;;;;;;;;;;;;24.82;56.52;95769.53;5096178;28;1252;-50
2022/09/06 09:37:45;;;;;;;;;;;;;;;24.69;53.18;95759.66;5096250;28;941;-50
2022/09/06 09:40:27;;;;;;;;;;;;;;;24.63;51.96;95764.16;5096131;28;1386;-52
2022/09/06 09:42:55;;;;;;;;;;;;;;;24.79;55.45;95756.34;5095824;28;1039;-52
2022/09/06 09:45:28;;;;;;;;;;;;;;;24.90;54.43;95753.59;5095404;28;1862;-50
2022/09/06 09:47:55;;;;;;;;;;;;;;;24.96;52.73;95751.00;5095780;28;1972;-50
2022/09/06 09:50:21;;;;;;;;;;;;;;;25.16;51.44;95748.75;5095869;28;972;-49
2022/09/06 09:52:47;;;;;;;;;;;;;;;25.26;48.86;95745.44;5095571;28;1103;-49
2022/09/06 09:55:13;;;;;;;;;;;;;;;25.26;49.50;95737.22;5095425;28;1032;-49
2022/09/06 09:57:45;;;;;;;;;;;;;;;25.12;50.23;95722.94;5095448;28;958;-50
2022/09/06 10:00:14;;;;;;;;;;;;;;;24.90;50.03;95730.91;5095754;28;1026;-49
2022/09/06 10:02:41;;;;;;;;;;;;;;;24.81;51.21;95732.31;5095584;28;1027;-49
2022/09/06 10:05:16;;;;;;;;;;;;;;;24.63;51.44;95731.34;5095280;28;1226;-49
2022/09/06 10:07:47;;;;;;;;;;;;;;;24.73;51.98;95726.13;5094947;28;1914;-49
2022/09/06 10:10:24;;;;;;;;;;;;;;;24.83;49.70;95721.97;5095160;28;1049;-49
2022/09/06 10:13:08;;;;;;;;;;;;;;;24.94;51.19;95721.97;5095087;28;1041;-49
2022/09/06 10:15:41;;;;;;;;;;;;;;;25.12;50.53;95714.72;5095090;28;1049;-49
2022/09/06 10:18:14;;;;;;;;;;;;;;;25.20;51.42;95713.53;5095182;28;1052;-49
2022/09/06 10:20:40;;;;;;;;;;;;;;;25.18;51.88;95707.47;5095272;28;968;-49
2022/09/06 10:23:11;;;;;;;;;;;;;;;25.13;50.92;95703.53;5095111;28;956;-49
2022/09/06 10:25:43;;;;;;;;;;;;;;;25.03;48.38;95694.28;5095034;28;1211;-49
2022/09/06 10:28:09;;;;;;;;;;;;;;;25.11;52.85;95692.00;5094808;28;1910;-54
2022/09/06 10:30:40;;;;;;;;;;;;;;;25.15;48.53;95684.13;5095156;28;1095;-49
2022/09/06 10:33:25;;;;;;;;;;;;;;;25.24;49.94;95682.72;5094694;28;989;-49
2022/09/06 10:35:51;;;;;;;;;;;;;;;25.33;50.49;95683.22;5095376;28;1150;-49
2022/09/06 10:38:20;;;;;;;;;;;;;;;25.38;50.71;95686.03;5094649;28;1093;-50
2022/09/06 10:41:08;;;;;;;;;;;;;;;25.38;48.92;95682.47;5094468;28;974;-49
2022/09/06 10:43:42;;;;;;;;;;;;;;;25.33;49.90;95675.00;5094633;28;992;-49
2022/09/06 10:46:13;;;;;;;;;;;;;;;25.24;45.88;95682.72;5097024;28;2721;-50
2022/09/06 10:48:46;;;;;;;;;;;;;;;25.22;45.08;95679.38;5099434;28;1906;-48
2022/09/06 10:51:22;;;;;;;;;;;;;;;25.13;46.93;95678.06;5113665;28;1189;-49
2022/09/06 10:53:51;;;;;;;;;;;;;;;25.03;45.20;95678.69;5109961;28;1162;-48
2022/09/06 10:56:37;;;;;;;;;;;;;;;25.06;44.69;95674.63;5094110;28;1053;-49
2022/09/06 10:59:11;;;;;;;;;;;;;;;25.14;46.13;95675.09;5080205;28;1312;-49
2022/09/06 11:01:37;;;;;;;;;;;;;;;25.23;47.78;95663.81;5094510;28;963;-49
2022/09/06 11:04:08;;;;;;;;;;;;;;;25.25;48.91;95667.13;5094114;28;1213;-48
2022/09/06 11:06:38;;;;;;;;;;;;;;;25.31;49.25;95669.75;5093944;28;1286;-49
2022/09/06 11:09:10;;;;;;;;;;;;;;;25.27;47.92;95662.25;5094085;28;2085;-48
2022/09/06 11:11:59;;;;;;;;;;;;;;;25.40;47.82;95661.16;5094363;28;970;-49
2022/09/06 11:14:26;;;;;;;;;;;;;;;25.30;47.22;95665.34;5093504;28;1994;-48
2022/09/06 11:17:03;;;;;;;;;;;;;;;25.32;48.72;95659.63;5093894;28;1037;-49
2022/09/06 11:19:51;;;;;;;;;;;;;;;25.47;48.46;95664.59;5093724;28;1150;-49
2022/09/06 11:22:28;;;;;;;;;;;;;;;25.59;46.93;95661.81;5093800;28;1329;-49
2022/09/06 11:25:13;;;;;;;;;;;;;;;25.72;48.44;95658.78;5094111;28;1108;-49
2022/09/06 11:27:41;;;;;;;;;;;;;;;25.73;48.46;95646.78;5093417;28;1914;-49
2022/09/06 11:30:13;;;;;;;;;;;;;;;25.52;45.11;95657.31;5094128;28;1020;-49
2022/09/06 11:32:47;;;;;;;;;;;;;;;25.55;47.69;95649.69;5093956;28;965;-49
2022/09/06 11:35:23;;;;;;;;;;;;;;;25.54;48.08;95648.03;5093816;28;1109;-49
2022/09/06 11:41:16;;;;;;;;;;;;;;;25.73;47.71;95641.28;3656068;27;2179;-49
2022/09/06 11:43:49;;;;;;;;;;;;;;;25.79;48.22;95639.50;5092127;28;1194;-49
2022/09/06 11:46:33;;;;;;;;;;;;;;;25.78;48.52;95641.41;5093482;28;1092;-49
2022/09/06 11:49:00;;;;;;;;;;;;;;;25.77;45.79;95636.16;5093646;28;1906;-48
2022/09/06 11:51:31;;;;;;;;;;;;;;;25.79;45.91;95629.34;5093844;28;969;-49
2022/09/06 11:53:59;;;;;;;;;;;;;;;25.86;45.52;95626.47;5093021;28;1037;-49
2022/09/06 11:56:30;;;;;;;;;;;;;;;25.81;45.96;95624.47;5093528;28;1036;-49
2022/09/06 11:59:13;;;;;;;;;;;;;;;25.81;47.46;95624.47;5093217;28;1036;-48
2022/09/06 12:01:58;;;;;;;;;;;;;;;25.83;47.11;95610.53;5093624;28;959;-48
2022/09/06 12:04:44;;;;;;;;;;;;;;;25.85;46.50;95614.66;5092859;28;1164;-48
2022/09/06 12:07:11;;;;;;;;;;;;;;;25.93;45.96;95612.66;5093063;28;2003;-49
2022/09/06 12:09:41;;;;;;;;;;;;;;;25.83;43.18;95614.09;5093482;28;978;-48
2022/09/06 12:12:07;;;;;;;;;;;;;;;25.67;45.79;95614.91;5093711;28;985;-48
2022/09/06 12:14:38;;;;;;;;;;;;;;;25.55;47.15;95612.19;5093059;28;1023;-48
2022/09/06 12:17:05;;;;;;;;;;;;;;;25.46;47.16;95614.50;5093383;28;1024;-51
2022/09/06 12:19:45;;;;;;;;;;;;;;;25.36;47.14;95613.47;5093186;28;1021;-52
2022/09/06 12:22:34;;;;;;;;;;;;;;;25.23;47.73;95617.28;5075738;28;1062;-52
2022/09/06 12:25:15;;;;;;;;;;;;;;;25.16;49.19;95605.66;5093061;28;973;-52
2022/09/06 12:27:50;;;;;;;;;;;;;;;25.12;47.31;95603.38;5093229;28;1993;-52
2022/09/06 12:30:35;;;;;;;;;;;;;;;25.19;46.34;95610.63;5092749;28;1096;-52
2022/09/06 12:33:06;;;;;;;;;;;;;;;25.16;47.71;95595.53;5092920;28;1147;-50
2022/09/06 12:35:33;;;;;;;;;;;;;;;25.13;49.41;95591.34;5093103;28;1042;-51
2022/09/06 12:38:00;;;;;;;;;;;;;;;25.24;47.13;95588.88;5093210;28;1083;-52
2022/09/06 12:40:29;;;;;;;;;;;;;;;25.47;47.90;95583.28;5092857;28;1097;-52
2022/09/06 12:42:55;;;;;;;;;;;;;;;25.64;46.40;95588.81;5093157;28;1031;-51
2022/09/06 12:45:22;;;;;;;;;;;;;;;25.65;47.90;95576.81;5091880;28;1251;-52
2022/09/06 12:47:49;;;;;;;;;;;;;;;25.56;47.59;95582.94;5093008;28;2083;-52
2022/09/06 12:50:20;;;;;;;;;;;;;;;25.35;47.11;95585.25;5092804;28;1033;-53
2022/09/06 12:52:56;;;;;;;;;;;;;;;25.16;47.34;95583.75;5092954;28;1068;-52
2022/09/06 12:55:29;;;;;;;;;;;;;;;25.03;47.69;95577.47;5092357;28;1209;-52
2022/09/06 12:57:57;;;;;;;;;;;;;;;24.96;49.10;95578.69;5093201;28;993;-52
2022/09/06 13:00:24;;;;;;;;;;;;;;;24.91;49.41;95585.72;5092738;28;1025;-52
2022/09/06 13:03:09;;;;;;;;;;;;;;;24.85;48.80;95586.69;5092975;28;1092;-51
2022/09/06 13:05:39;;;;;;;;;;;;;;;24.94;50.65;95587.94;5094757;28;1000;-51
2022/09/06 13:08:09;;;;;;;;;;;;;;;24.92;50.70;95586.53;5096639;28;2004;-50
2022/09/06 13:10:38;;;;;;;;;;;;;;;24.84;49.27;95589.66;5096701;28;1037;-51